• Join FlightAware (Why Join?)
  • Login
  • US Flag 
01:37AM EDT


 

Airport Tracker/Info


-or-


 

Live Flight TrackerFlight Track Log ✈ SWA923 ✈ 06-Jan-2014 ✈ KDEN - KSEA

Flight Track Log - Related Links

Times and Time Zones

All times are in EST time to prevent confusion due to time zone crossing. See the SWA923 flight status page for this flight to view local times or setup timezone preferences in your user account.

Time Position Orientation Groundspeed Altitude Reporting Facility
EST Latitude Longitude Course Direction KTS MPH feet Rate Location/Type
11:30AM 39.8833 -104.5667 323° Northwest 193 222 7,000  Level Denver TRACON
11:31AM 39.9000 -104.4833 75° East 241 277 9,200 2,160 Climbing Denver TRACON
11:32AM 39.9333 -104.4167 57° Northeast 276 318 11,200 2,520 Climbing Denver TRACON
11:33AM 40.0000 -104.3833 21° North 263 303 14,000 2,400 Climbing Denver TRACON
11:34AM 40.0833 -104.4500 329° Northwest 313 360 16,300 2,400 Climbing Denver TRACON
11:35AM 40.2347 -105.3333 323° Northwest  Level Estimated
11:35AM 40.1650 -104.5328 322° Northwest 328 377 19,600  Level Denver Center
11:36AM 40.2483 -104.6067 326° Northwest 340 391 22,100 2,160 Climbing Denver Center
11:37AM 40.3283 -104.6783 326° Northwest 359 413 24,200 1,920 Climbing Denver Center
11:38AM 40.4114 -104.7525 326° Northwest 365 420 26,200 1,800 Climbing Denver Center
11:39AM 40.4975 -104.8292 326° Northwest 374 430 28,000 2,220 Climbing Denver Center
11:40AM 40.6006 -104.9222 326° Northwest 374 430 30,900 2,460 Climbing Denver Center
11:41AM 40.6833 -104.9978 325° Northwest 364 419 33,100 1,500 Climbing Denver Center
11:42AM 40.7636 -105.0667 327° Northwest 345 397 34,000 420 Climbing Denver Center
11:43AM 40.8381 -105.1500 320° Northwest 348 400 34,000  Level Denver Center
11:44AM 40.9131 -105.2342 320° Northwest 353 406 34,000 480 Level Denver Center
11:45AM 41.0033 -105.3375 319° Northwest 358 412 35,100 1,020 Climbing Denver Center
11:46AM 41.0764 -105.4203 320° Northwest 361 415 36,200 1,020 Climbing Denver Center
11:47AM 41.1497 -105.5036 319° Northwest 361 415 37,300 840 Climbing Denver Center
11:48AM 41.2347 -105.6017 319° Northwest 362 417 38,000 300 Climbing Denver Center
11:49AM 41.3069 -105.6853 319° Northwest 360 414 38,000  Level Denver Center
11:50AM 41.3769 -105.8053 308° West 372 428 38,000  Level Denver Center
11:51AM 41.4278 -105.9150 302° West 368 423 38,000  Level Denver Center
11:52AM 41.4894 -106.0439 303° West 368 423 38,000  Level Denver Center
11:53AM 41.5397 -106.1567 301° West 369 425 38,000  Level Denver Center
11:55AM 41.5994 -106.2894 301° West 373 429 38,000  Level Denver Center
11:56AM 41.6506 -106.4031 301° West 373 429 38,000  Level Denver Center
11:57AM 41.7075 -106.5333 300° West 372 428 38,000  Level Denver Center
11:58AM 41.7581 -106.6467 301° West 371 427 38,000  Level Denver Center
11:59AM 41.8167 -106.7797 301° West 372 428 38,000  Level Denver Center
12:00PM 41.8667 -106.8942 300° West 371 427 38,000  Level Denver Center
12:01PM 41.9261 -107.0283 301° West 375 432 38,000  Level Denver Center
12:02PM 41.9764 -107.1444 300° West 377 434 38,000  Level Denver Center
12:03PM 42.0353 -107.2806 300° West 378 435 38,000  Level Denver Center
12:04PM 42.0769 -107.3767 300° West 376 433 38,000  Level Denver Center
12:05PM 42.1422 -107.5317 300° West 375 432 38,000  Level Denver Center
12:06PM 42.1917 -107.6464 300° West 372 428 38,000  Level Denver Center
12:07PM 42.2250 -107.7239 300° West 373 429 38,000  Level Salt Lake Center
12:08PM 42.2833 -107.8622 300° West 379 436 38,000  Level Salt Lake Center
12:09PM 42.3342 -107.9806 300° West 381 438 38,000  Level Salt Lake Center
12:10PM 42.3925 -108.1211 299° West 386 444 38,000  Level Salt Lake Center
12:11PM 42.4436 -108.2442 299° West 391 450 38,000  Level Salt Lake Center
12:12PM 42.4944 -108.3642 300° West 388 447 38,000  Level Salt Lake Center
12:13PM 42.5539 -108.5078 299° West 390 449 38,000  Level Salt Lake Center
12:14PM 42.6044 -108.6311 299° West 391 450 38,000  Level Salt Lake Center
12:15PM 42.6633 -108.7736 299° West 390 449 38,000  Level Salt Lake Center
12:16PM 42.7142 -108.8972 299° West 391 450 38,000  Level Salt Lake Center
12:17PM 42.7731 -109.0425 299° West 393 452 38,000  Level Salt Lake Center
12:18PM 42.8225 -109.1653 299° West 389 448 38,000  Level Salt Lake Center
12:19PM 42.8806 -109.3075 299° West 386 444 38,000  Level Salt Lake Center
12:20PM 42.9283 -109.4267 299° West 380 437 38,000  Level Salt Lake Center
12:21PM 42.9856 -109.5689 299° West 385 443 38,000  Level Salt Lake Center
12:22PM 43.0358 -109.6972 298° West 385 443 38,000  Level Salt Lake Center
12:23PM 43.0878 -109.8244 299° West 383 441 38,000  Level Salt Lake Center
12:24PM 43.1417 -109.9631 298° West 385 443 38,000  Level Salt Lake Center
12:25PM 43.1897 -110.0872 298° West 386 444 38,000  Level Salt Lake Center
12:26PM 43.2444 -110.2275 298° West 386 444 38,000  Level Salt Lake Center
12:27PM 43.2947 -110.3478 300° West 382 440 38,000  Level Salt Lake Center
12:28PM 43.3508 -110.4956 298° West 389 448 38,000  Level Salt Lake Center
12:29PM 43.4028 -110.6286 298° West 395 455 38,000  Level Salt Lake Center
12:30PM 43.4519 -110.7564 298° West 394 453 38,000  Level Salt Lake Center
12:31PM 43.5103 -110.9058 298° West 396 456 38,000  Level Salt Lake Center
12:32PM 43.5583 -111.0369 297° West 400 460 38,000  Level Salt Lake Center
12:33PM 43.6081 -111.1661 298° West 399 459 38,000  Level Salt Lake Center
12:34PM 43.6650 -111.3161 298° West 394 453 38,000  Level Salt Lake Center
12:35PM 43.7122 -111.4442 297° West 392 451 38,000  Level Salt Lake Center
12:36PM 43.7689 -111.5922 298° West 390 449 38,000  Level Salt Lake Center
12:37PM 43.8178 -111.7219 298° West 394 453 38,000  Level Salt Lake Center
12:38PM 43.8636 -111.8497 296° West 390 449 38,000  Level Salt Lake Center
12:39PM 43.9178 -111.9983 297° West 387 445 38,000  Level Salt Lake Center
12:40PM 43.9642 -112.1264 297° West 387 445 38,000  Level Salt Lake Center
12:42PM 44.0200 -112.2761 297° West 390 449 38,000  Level Salt Lake Center
12:43PM 44.0661 -112.4053 296° West 389 448 38,000  Level Salt Lake Center
12:44PM 44.1219 -112.5597 297° West 397 457 38,000  Level Salt Lake Center
12:45PM 44.1686 -112.6908 296° West 396 456 38,000  Level Salt Lake Center
12:46PM 44.2167 -112.8228 297° West 398 458 38,000  Level Salt Lake Center
12:47PM 44.2717 -112.9778 296° West 399 459 38,000 300 Level Salt Lake Center
12:48PM 44.3206 -113.1094 297° West 399 459 38,700 900 Climbing Salt Lake Center
12:49PM 44.3750 -113.2650 296° West 399 459 39,900 600 Climbing Salt Lake Center
12:50PM 44.4219 -113.3947 297° West 395 455 40,000  Climbing Salt Lake Center
12:51PM 44.4661 -113.5264 295° West 392 451 40,000  Level Salt Lake Center
12:52PM 44.5181 -113.6783 296° West 389 448 40,000  Level Salt Lake Center
12:53PM 44.5636 -113.8086 296° West 389 448 40,000  Level Salt Lake Center
12:54PM 44.6089 -113.9411 296° West 386 444 40,000  Level Salt Lake Center
12:55PM 44.6628 -114.1050 295° West 386 444 40,000  Level Salt Lake Center
12:56PM 44.7100 -114.2411 296° West 389 448 40,000  Level Salt Lake Center
12:57PM 44.7553 -114.3775 295° West 388 447 40,000  Level Salt Lake Center
12:58PM 44.8022 -114.5161 296° West 392 451 40,000  Level Salt Lake Center
12:59PM 44.8481 -114.6561 295° West 395 455 40,000  Level Salt Lake Center
01:00PM 44.8950 -114.7969 295° West 397 457 40,000  Level Salt Lake Center
01:01PM 44.9503 -114.9642 295° West 395 455 40,000  Level Salt Lake Center
01:02PM 44.9961 -115.1067 294° West 398 458 40,000  Level Salt Lake Center
01:03PM 45.0425 -115.2494 295° West 400 460 40,000  Level Salt Lake Center
01:04PM 45.0886 -115.3917 295° West 401 461 40,000  Level Salt Lake Center
01:05PM 45.1344 -115.5328 295° West 399 459 40,000  Level Salt Lake Center
01:06PM 45.1794 -115.6744 294° West 397 457 40,000  Level Salt Lake Center
01:07PM 45.2078 -115.7614 295° West 397 457 40,000  Level Seattle Center
01:08PM 45.2617 -115.9308 294° West 396 456 40,000  Level Seattle Center
01:09PM 45.3058 -116.0742 294° West 398 458 40,000  Level Seattle Center
01:10PM 45.3500 -116.2147 294° West 395 455 40,000  Level Seattle Center
01:11PM 45.3942 -116.3567 294° West 394 453 40,000  Level Seattle Center
01:12PM 45.4378 -116.4969 294° West 391 450 40,000  Level Seattle Center
01:13PM 45.4819 -116.6408 294° West 395 455 40,000  Level Seattle Center
01:14PM 45.5272 -116.7856 294° West 399 459 40,000  Level Seattle Center
01:14PM 45.5456 -116.8436 294° West 401 461 40,000  Level Salt Lake Center
01:15PM 45.5717 -116.9325 293° West 404 465 40,000  Level Seattle Center
01:16PM 45.6156 -117.0794 293° West 404 465 40,000  Level Seattle Center
01:17PM 45.6603 -117.2267 294° West 404 465 40,000  Level Seattle Center
01:18PM 45.7075 -117.3797 294° West 402 463 40,000  Level Seattle Center
01:19PM 45.7514 -117.5261 293° West 401 461 40,000  Level Seattle Center
01:20PM 45.7947 -117.6706 293° West 396 456 40,000  Level Seattle Center
01:21PM 45.8369 -117.8183 292° West 400 460 40,000  Level Seattle Center
01:22PM 45.8803 -117.9642 293° West 399 459 40,000  Level Seattle Center
01:23PM 45.9236 -118.1128 293° West 403 464 40,000  Level Seattle Center
01:24PM 45.9664 -118.2600 293° West 400 460 40,000  Level Seattle Center
01:25PM 46.0097 -118.4111 292° West 407 468 40,000  Level Seattle Center
01:26PM 46.0586 -118.5828 292° West 403 464 40,000  Level Seattle Center
01:27PM 46.1011 -118.7328 292° West 405 466 40,000  Level Seattle Center
01:28PM 46.1431 -118.8822 292° West 403 464 40,000  Level Seattle Center
01:29PM 46.1850 -119.0319 292° West 404 465 40,000  Level Seattle Center
01:30PM 46.2267 -119.1808 292° West 403 464 40,000  Level Seattle Center
01:31PM 46.2683 -119.3317 292° West 406 467 40,000  Level Seattle Center
01:32PM 46.3097 -119.4803 292° West 404 465 40,000  Level Seattle Center
01:33PM 46.3497 -119.6292 291° West 400 460 40,000  Level Seattle Center
01:34PM 46.3914 -119.7781 292° West 400 460 40,000  Level Seattle Center
01:35PM 46.4317 -119.9294 291° West 403 464 40,000  Level Seattle Center
01:36PM 46.4719 -120.0811 291° West 404 465 40,000 -240 Level Seattle Center
01:37PM 46.5214 -120.2650 291° West 409 471 39,600 -660 Descending Seattle Center
01:38PM 46.5631 -120.4211 291° West 415 478 38,700 -1,680 Descending Seattle Center
01:39PM 46.6250 -120.5636 302° West 418 481 36,300 -2,760 Descending Seattle Center
01:40PM 46.6933 -120.7028 306° West 422 486 33,100 -2,820 Descending Seattle Center
01:41PM 46.7583 -120.8447 304° West 423 487 30,600 -2,340 Descending Seattle Center
01:42PM 46.8219 -120.9769 305° West 404 465 28,400 -2,280 Descending Seattle Center
01:43PM 46.8831 -121.1086 304° West 396 456 26,100 -2,280 Descending Seattle Center
01:44PM 46.9422 -121.2378 304° West 386 444 23,900 -2,160 Descending Seattle Center
01:45PM 47.0011 -121.3603 305° West 375 432 21,800 -2,220 Descending Seattle Center
01:45PM 47.0111 -121.3797 307° West 369 425 21,500 -2,220 Descending Seattle Center
01:46PM 47.0619 -121.4947 303° West 367 422 19,600 -1,920 Descending Seattle Center
01:46PM 47.0678 -121.5011 323° Northwest 362 417 19,600 -1,320 Level Seattle Center
01:47PM 47.1158 -121.6111 303° West 352 405 18,300 -1,560 Descending Seattle Center
01:48PM 47.1300 -121.6361 310° West 342 394 17,900 -2,040 Descending Seattle Center
01:48PM 47.1736 -121.7333 303° West 350 403 16,300 -1,920 Descending Seattle Center
01:49PM 47.1822 -121.7506 306° West 337 388 16,000 -1,320 Descending Seattle Center
01:49PM 47.2256 -121.8472 303° West 338 389 15,000 -1,020 Descending Seattle Center
01:50PM 47.2342 -121.8653 305° West 339 390 15,000 -1,680 Level Seattle Center
01:50PM 47.2772 -121.9592 304° West 334 384 13,300 -2,100 Descending Seattle Center
01:51PM 47.2856 -121.9775 304° West 330 380 12,900 -1,920 Descending Seattle Center
01:52PM 47.3381 -122.0956 303° West 321 369 11,100 -1,500 Descending Seattle Center
01:52PM 47.3808 -122.1783 307° West 310 357 10,100 -1,140 Descending Seattle Center
01:53PM 47.3925 -122.1864 335° Northwest 299 344 10,000 -1,500 Descending Seattle Center
01:53PM 47.4619 -122.1886 359° North 301 346 8,600 -1,680 Descending Seattle Center
01:54PM 47.4750 -122.1867 North 299 344 8,300 -1,800 Descending Seattle Center
01:54PM 47.5419 -122.1864 360° North 291 335 6,800 -1,920 Descending Seattle Center
01:55PM 47.5547 -122.1853 North 293 337 6,400 -840 Descending Seattle Center
01:55PM 47.6258 -122.1853 360° North 278 320 6,000 -360 Descending Seattle Center
01:56PM 47.6436 -122.1853 360° North 258 297 6,000 -300 Level Seattle Center
01:57PM 47.7028 -122.1819 North 226 260 5,700 -660 Descending Seattle Center
01:57PM 47.7464 -122.2033 342° North 227 261 4,900 -1,140 Descending Seattle Center
01:58PM 47.7492 -122.2153 289° West 199 229 4,600 -900 Descending Seattle Center
01:59PM 47.7400 -122.2711 256° West 168 193 4,000 -660 Descending Seattle Center
01:59PM 47.7356 -122.2758 216° Southwest 171 197 4,000  Level Seattle Center
02:00PM 47.6928 -122.3092 208° Southwest 142 163 4,000  Level Seattle Center
02:01PM 47.6586 -122.3181 190° South 146 168 4,000  Level Seattle Center
02:01PM 47.6508 -122.3194 187° South 144 166 4,000 -600 Level Seattle Center
02:02PM 47.6167 -122.3167 177° South 153 176 3,400 -720 Descending Seattle Center
02:02PM 47.6081 -122.3167 180° South 151 174 3,300 -840 Descending Seattle Center
02:03PM 47.5722 -122.3169 180° South 161 185 2,600 -840 Descending Seattle Center
02:03PM 47.5658 -122.3169 180° South 158 182 2,500 -840 Descending Seattle Center
02:04PM 47.5292 -122.3178 181° South 156 180 1,800 -840 Descending Seattle Center
02:04PM 47.5197 -122.3194 187° South 152 175 1,600 -720 Descending Seattle Center
02:05PM 47.4928 -122.3175 177° South 133 153 1,100 -720 Descending Seattle Center
02:05PM 47.4814 -122.3175 180° South 126 145 900 -720 Descending Seattle Center
02:06PM 47.4592 -122.3183 181° South 130 150 400 -660 Descending Seattle Center
02:08PM 47.4499 -122.3118 306° West  Level Estimated